• Join FlightAware (Why Join?)
  • Login
  • US Flag 
05:05PM EDT


 

Airport Tracker/Info


-or-


 

Live Flight TrackerFlight Track Log ✈ RPA3253 ✈ 23-Jun-2013 ✈ KALB - KCLT

Flight Track Log - Related Links

Times and Time Zones

All times are in EDT time to prevent confusion due to time zone crossing. See the RPA3253 flight status page for this flight to view local times or setup timezone preferences in your user account.

Time Position Orientation Groundspeed Altitude Reporting Facility
EDT Latitude Longitude Course Direction KTS MPH feet Rate Location/Type
07:22PM 42.7483 -73.8339 169° South 154 177 1,500  Level Boston Center
07:23PM 42.7478 -73.8819 269° West 182 209 2,600 2,220 Climbing Boston Center
07:25PM 42.5138 -74.0575 171° South  Level Estimated
07:25PM 42.8092 -73.9569 318° Northwest 237 273 6,300  Level Boston Center
07:26PM 42.4353 -74.1422 180° South  Level Estimated
07:26PM 42.8564 -74.0119 320° Northwest 237 273 9,300  Level Boston Center
07:27PM 42.3567 -74.2268 170° South  Level Estimated
07:27PM 42.8636 -74.0914 277° West 210 242 11,200  Level Boston Center
07:28PM 42.2780 -74.3111 169° South  Level Estimated
07:28PM 42.8078 -74.1919 233° Southwest 241 277 13,500  Level Boston Center
07:29PM 42.7586 -74.2783 232° Southwest 308 354 15,600 2,100 Climbing Boston Center
07:30PM 42.6608 -74.2697 176° South 308 354 17,800 1,800 Climbing Boston Center
07:31PM 42.5806 -74.2108 152° Southeast 323 372 19,200 1,620 Climbing Boston Center
07:32PM 42.4878 -74.1378 150° Southeast 346 398 21,100 1,800 Climbing Boston Center
07:33PM 42.3928 -74.0678 151° Southeast 374 430 22,800 1,560 Climbing Boston Center
07:34PM 42.2939 -73.9950 151° Southeast 390 449 24,300 1,440 Climbing Boston Center
07:35PM 42.2031 -73.9256 150° Southeast 409 471 25,700 1,500 Climbing Boston Center
07:36PM 42.0814 -73.8358 151° Southeast 415 478 27,300 1,260 Climbing Boston Center
07:37PM 41.9781 -73.7583 151° Southeast 415 478 28,300 600 Climbing Boston Center
07:38PM 41.8617 -73.7306 170° South 415 478 28,600 540 Climbing Boston Center
07:39PM 41.7406 -73.7367 182° South 420 483 29,400 960 Climbing Boston Center
07:40PM 41.5633 -73.7572 185° South 459 528 31,100 1,200 Climbing New York Center
07:41PM 41.4297 -73.7706 184° South 448 516 32,500 1,260 Climbing New York Center
07:42PM 41.3106 -73.7819 184° South 442 509 33,700 720 Climbing New York Center
07:43PM 41.1958 -73.7986 186° South 430 495 34,000 60 Climbing New York Center
07:44PM 41.1039 -73.8856 215° Southwest 391 450 33,900  Descending New York Center
07:45PM 41.0297 -74.0086 231° Southwest 400 460 34,000  Climbing New York Center
07:46PM 40.9575 -74.1314 232° Southwest 410 472 34,000  Level New York Center
07:47PM 40.8922 -74.2325 230° Southwest 415 478 34,000  Level New York Center
07:48PM 40.8197 -74.3550 232° Southwest 420 483 34,000  Level New York Center
07:49PM 40.7475 -74.4717 231° Southwest 420 483 34,000  Level New York Center
07:50PM 40.6747 -74.5936 232° Southwest 426 490 34,000  Level New York Center
07:51PM 40.6019 -74.7125 231° Southwest 426 490 34,000  Level New York Center
07:52PM 40.5275 -74.8231 228° Southwest 431 496 34,000  Level New York Center
07:53PM 40.4464 -74.9356 227° Southwest 431 496 34,000  Level New York Center
07:54PM 40.3694 -75.0478 228° Southwest 426 490 34,000  Level New York Center
07:55PM 40.2906 -75.1572 227° Southwest 426 490 34,000  Level New York Center
07:56PM 40.2133 -75.2667 227° Southwest 426 490 34,000  Level New York Center
07:57PM 40.1342 -75.3756 226° Southwest 426 490 34,000  Level New York Center
07:58PM 40.0567 -75.4869 228° Southwest 426 490 34,000  Level New York Center
07:59PM 39.9772 -75.5956 226° Southwest 426 490 34,000  Level New York Center
08:00PM 39.9019 -75.7039 228° Southwest 426 490 34,000  Level New York Center
08:01PM 39.8281 -75.8231 231° Southwest 421 484 34,000  Level New York Center
08:02PM 39.7567 -75.9342 230° Southwest 415 478 34,000  Level New York Center
08:03PM 39.6828 -76.0472 230° Southwest 415 478 34,000  Level New York Center
08:04PM 39.6150 -76.1636 233° Southwest 415 478 34,000  Level New York Center
08:05PM 39.5281 -76.2861 227° Southwest 415 478 34,000  Level New York Center
08:06PM 39.4672 -76.3844 231° Southwest 402 463 34,000  Level Washington Center
08:07PM 39.3936 -76.4939 229° Southwest 397 457 34,000  Level Washington Center
08:08PM 39.3197 -76.6164 232° Southwest 402 463 34,000  Level Washington Center
08:09PM 39.2458 -76.7253 229° Southwest 402 463 34,000  Level Washington Center
08:10PM 39.1781 -76.8314 231° Southwest 397 457 34,000  Level Washington Center
08:11PM 39.1081 -76.9425 231° Southwest 402 463 34,000  Level Washington Center
08:12PM 39.0339 -77.0481 228° Southwest 402 463 34,000  Level Washington Center
08:13PM 38.9514 -77.1397 221° Southwest 402 463 34,000  Level Washington Center
08:14PM 38.8667 -77.2339 221° Southwest 402 463 34,000  Level Washington Center
08:15PM 38.7928 -77.3122 220° Southwest 397 457 34,000  Level Washington Center
08:16PM 38.7100 -77.4033 221° Southwest 397 457 34,000  Level Washington Center
08:17PM 38.6272 -77.4944 221° Southwest 397 457 34,000  Level Washington Center
08:18PM 38.5425 -77.5853 220° Southwest 397 457 34,000  Level Washington Center
08:19PM 38.4597 -77.6758 221° Southwest 397 457 34,000  Level Washington Center
08:20PM 38.3767 -77.7661 220° Southwest 397 457 34,000  Level Washington Center
08:21PM 38.2936 -77.8564 220° Southwest 397 457 34,000  Level Washington Center
08:22PM 38.2106 -77.9464 220° Southwest 397 457 34,000  Level Washington Center
08:23PM 38.1297 -78.0336 220° Southwest 397 457 34,000  Level Washington Center
08:24PM 38.0464 -78.1231 220° Southwest 397 457 34,000  Level Washington Center
08:25PM 37.9672 -78.2258 226° Southwest 387 445 34,000  Level Washington Center
08:26PM 37.8958 -78.3286 229° Southwest 387 445 34,000  Level Washington Center
08:27PM 37.8314 -78.4208 229° Southwest 395 455 34,000  Level Washington Center
08:28PM 37.7519 -78.5097 222° Southwest 395 455 34,000  Level Washington Center
08:29PM 37.6686 -78.5958 219° Southwest 390 449 34,000  Level Washington Center
08:30PM 37.5764 -78.6917 219° Southwest 390 449 34,000 -360 Level Washington Center
08:31PM 37.4925 -78.7825 221° Southwest 397 457 33,400 -840 Descending Washington Center
08:32PM 37.4067 -78.8783 222° Southwest 403 464 32,400 -720 Descending Washington Center
08:33PM 37.3164 -78.9683 218° Southwest 409 471 32,000 -240 Descending Washington Center
08:34PM 37.2283 -79.0583 219° Southwest 409 471 32,000  Level Washington Center
08:35PM 37.1486 -79.1436 220° Southwest 414 476 32,000  Level Washington Center
08:36PM 37.0644 -79.2358 221° Southwest 414 476 32,000  Level Washington Center
08:37PM 36.9719 -79.3278 218° Southwest 414 476 32,000  Level Washington Center
08:38PM 36.8836 -79.4222 221° Southwest 414 476 32,000 -120 Level Washington Center
08:39PM 36.7864 -79.5236 220° Southwest 414 476 31,800 -1,020 Descending Washington Center
08:40PM 36.6997 -79.6150 220° Southwest 419 482 30,000 -1,920 Descending Washington Center
08:41PM 36.6089 -79.7086 220° Southwest 419 482 28,000 -1,620 Descending Washington Center
08:43PM 36.4847 -79.8325 219° Southwest 434 499 26,100 -1,680 Descending Atlanta Center
08:44PM 36.3981 -79.9222 220° Southwest 427 491 24,000 -2,100 Descending Atlanta Center
08:45PM 36.3050 -80.0119 218° Southwest 414 476 22,000 -1,500 Descending Atlanta Center
08:46PM 36.2158 -80.0936 216° Southwest 406 467 21,000 -1,500 Descending Atlanta Center
08:47PM 36.1286 -80.1672 214° Southwest 401 461 19,000 -1,860 Descending Atlanta Center
08:48PM 36.0433 -80.2381 214° Southwest 390 449 17,300 -1,800 Descending Atlanta Center
08:49PM 35.9700 -80.2981 214° Southwest 380 437 15,400 -1,920 Descending Atlanta Center
08:49PM 35.9214 -80.3489 220° Southwest 340 391 14,300 -1,200 Descending Atlanta Center
08:51PM 35.8175 -80.4331 213° Southwest 290 334 13,000 -780 Descending Atlanta Center
08:52PM 35.7583 -80.4792 212° Southwest 303 349 12,500 -720 Descending Atlanta Center
08:53PM 35.7022 -80.5531 227° Southwest 293 337 11,600 -1,080 Descending Atlanta Center
08:54PM 35.6608 -80.6419 240° Southwest 289 333 10,500 -1,140 Descending Atlanta Center
08:55PM 35.6214 -80.7303 241° Southwest 293 337 9,400 -1,080 Descending Atlanta Center
08:56PM 35.5861 -80.8161 243° Southwest 288 331 8,300 -1,200 Descending Atlanta Center
08:57PM 35.5467 -80.8967 239° Southwest 288 331 7,100 -1,200 Descending Atlanta Center
08:58PM 35.4806 -80.9300 202° Southwest 256 295 5,900 -1,260 Descending Atlanta Center
08:59PM 35.4189 -80.9578 200° South 251 289 4,600 -1,260 Descending Atlanta Center
09:00PM 35.3567 -80.9703 189° South 187 215 3,400 -1,080 Descending Atlanta Center
09:01PM 35.3042 -80.9619 173° South 152 175 2,200 -900 Descending Atlanta Center
09:02PM 35.2706 -80.9581 175° South 128 147 1,600 -660 Descending Atlanta Center